Search flights

Statesville Regl Airport, Statesville (KSVH)

Airport Weather & NOTAM's

METAR for:KSVH (Statesville Muni, NC, US)
Text:KSVH 160545Z AUTO 09005KT 10SM OVC095 23/17 A3009 RMK AO2 T02330174
Conditions at:0545 UTC 16 Jun 2024
Temperature: 23.3°C ( 74°F)
Dewpoint: 17.4°C ( 63°F) [RH = 69%]
Pressure (altimeter):30.09 inches Hg (1019.0 mb)
Winds:from the E (90 degrees) at 6 MPH (5 knots; 2.6 m/s)
Visibility:10 or more sm (16+ km)
Ceiling:9500 feet AGL
Clouds:overcast cloud deck at 9500 feet AGL
QC Flag:automated observation with no human augmentation

Live Departures & Arrivals

There are currently no arrivals or departures for this airport.

Departures History (last 12 months)

Flight No. Dest. Aircraft Date
SIC0868 2NC0 A36 Bonanz... 2024-06-10 19:14:41

Arrivals History (last 12 months)

No arrival history to display.

Runway Information (Airport elevation: 968ft)

Runway 10 Length 7,001ft Width 99ft Elevation 958ft Surface Bituminous Heading 97
Runway 28 Length 7,001ft Width 99ft Elevation 958ft Surface Bituminous Heading 277

Airport Frequencies

Type APP/DEP Frequency 125.150 Mhz
Type AWOS Frequency 119.225 Mhz
Type D Frequency 125.150 Mhz
Type UC Frequency 123.075 Mhz
Type AWOS Frequency 119.225 Mhz
Type AWOS Frequency 119.675 Mhz
Type CTR Frequency 125.150 Mhz
Type UC Frequency 123.075 Mhz

Airport Navaids

No navaids to display.